Go Pro

Invesco BulletShares 2029 Corporate Bond ETF (BSCT) Institutional Ownership

Invesco BulletShares 2029 Corporate Bond ETF logo
$18.48 +0.04 (+0.19%)
As of 12:20 PM Eastern
This is a fair market value price provided by Massive. Learn more.

Institutional Ownership Changes (13F Filings) for Invesco BulletShares 2029 Corporate Bond ETF (NASDAQ:BSCT)

Number of
Institutional Buyers
(last 12 months)
267
Total
Institutional Inflows
(last 12 months)
$460.78M
Number of
Institutional Sellers
(last 12 months)
64
Total
Institutional Outflows
(last 12 months)
$68.19M
Get BSCT Insider Trade Alerts

Want to know when executives and insiders are buying or selling Invesco BulletShares 2029 Corporate Bond ETF stock? Sign up for InsiderTrades.com's daily newsletter to get the latest insider transactions delivered to your inbox daily.

SMS is currently available in Australia, Belgium, Canada, France, Germany, Ireland, Italy, New Zealand, the Netherlands, Singapore, South Africa, Spain, Switzerland, the United Kingdom, and the United States. By entering your phone number and clicking the sign-up button, you agree to receive periodic text messages from MarketBeat at the phone number you submitted, including texts that may be sent using an automatic telephone dialing system. Message and data rates may apply. Message frequency will vary. Messages will consist of stock alerts, news stories, and partner advertisements/offers. Consent is not a condition of the purchase of any goods or services. Text HELP for help/customer support. Unsubscribe at any time by replying "STOP" to any text message that you receive from MarketBeat or by visiting our mailing preferences page. Read our full terms of service and privacy policy.
Skip Chart & View Institutional Buying and Selling Data

BSCT Institutional Buying and Selling by Quarter

Invesco BulletShares 2029 Corporate Bond ETF Major Shareholders & Ownership History

Reporting DateMajor Shareholder NameShares HeldMarket Value% of PortfolioQuarterly Change in SharesOwnership in CompanyDetails
9/2/2026Kinetic Wealth Investment Advisors LLC176,303$3.28M1.5%N/A0.112%
9/2/2026 Citadel Advisors LLC176,133$3.27M0.0%-14.5%0.112%
8/23/2026 Guardian Wealth Advisors LLC NC162,493$3.02M0.2%-0.4%0.103%
8/23/2026 Straight Path Wealth Management599,064$11.13M2.6%+2.2%0.381%
8/23/2026 Wedmont Private Capital26,650$495K0.0%N/A0.017%
8/23/2026 Kintra Wealth LLC266,234$4.95M0.3%+31.3%0.169%
8/23/2026 Semitam Bonam LLC104,758$1.95M1.4%+3.6%0.067%
8/22/2026 Kickstand Ventures LLC.41,159$765K0.1%-91.9%0.026%
8/22/2026 Concurrent Investment Advisors LLC42,212$784K0.0%+272.2%0.027%
8/21/2026 Independence Bank of Kentucky67,186$1.25M0.1%+7.2%0.043%
8/20/2026 Gill Capital Partners LLC659,467$12.25M3.2%-0.9%0.419%
7/10/2026 Butensky & Cohen Financial Security Inc.86,226$1.60M0.4%+4.0%0.056%
7/10/2026 Whitener Capital Management Inc.64,924$1.21M0.3%+17.4%0.042%
7/10/2026 City Holding Co.45,150$838K0.1%N/A0.029%
7/10/2026 Wealthcare Advisory Partners LLC22,563$419K0.0%+49.7%0.015%
7/9/2026 Sax Wealth Advisors LLC48,079$897K0.0%+19.8%0.031%
7/9/2026 Oliver Luxxe Assets LLC138,701$2.58M0.4%+6.7%0.090%
7/9/2026 Everpar Advisors LLC80,914$1.50M0.4%+12.4%0.053%
7/9/2026 Hennion & Walsh Asset Management Inc.87,016$1.62M0.0%+5.0%0.057%
7/9/2026 Legacy Wealth Management LLC MS98,956$1.84M0.5%-3.0%0.064%
7/9/2026 Ledgewood Wealth Advisors LLC404,458$7.51M4.0%+10.4%0.263%
7/8/2026 RVW Wealth LLC15,968$297K0.0%+10.8%0.010%
7/8/2026 Matthew Goff Investment Advisor LLC75,600$1.40M0.2%-2.5%0.049%
7/8/2026 Apella Capital LLC55,844$1.04M0.0%+1.6%0.036%
7/8/2026 Red Spruce Capital LLC297,737$5.53M1.9%+14.5%0.194%
7/8/2026 Clark Asset Management LLC1,407,457$26.14M2.1%+13.1%0.915%
7/7/2026 Tlwm1,598,888$29.70M4.8%+2.1%1.040%
7/7/2026 Avior Wealth Management LLC2,357,478$43.79M1.2%-9.3%1.533%
7/6/2026 Stonebridge Financial Group LLC10,918$203K0.0%N/A0.007%
7/6/2026 Somerset Trust Co11,084$206K0.1%N/A0.007%
7/6/2026 Trilogy Capital Inc.248,221$4.61M0.2%+0.5%0.161%
7/1/2026 Global Wealth Strategies & Associates22,508$418K0.1%-3.8%0.014%
6/18/2026 Western Wealth Management LLC22,355$417K0.0%+3.2%0.015%
6/3/2026 NewEdge Advisors LLC785,760$14.66M0.1%+8.6%0.524%
6/1/2026 Financial Solutions Advisory Group Inc.332,695$6.21M0.9%N/A0.222%
5/29/2026 Asset Dedication LLC660,260$12.32M0.9%+7.0%0.441%
5/27/2026 Allen Capital Group LLC33,031$616K0.1%-6.8%0.022%
5/22/2026Coastline Complete Wealth LLC209,188$3.90M2.4%+18.5%0.140%
5/19/2026 Western Wealth Management LLC22,355$417K0.0%+3.2%0.015%
5/19/2026 Bank of America Corp DE3,487,306$65.07M0.0%+32.0%2.327%
The $15 Gold Fund That Pays Up to $1,152/Month (Ad)

Gold is hitting record highs, but most investors are leaving income on the table. A $15 fund is quietly paying out up to $1,152 a month to regular investors - no mining stocks, no options, no physical metal required. Chief Income Strategist Tim Plaehn calls it a breakthrough strategy that transforms gold's rally into reliable monthly payouts. The next distribution is just days away.tc pixel

Discover the gold income fund before the next payout date
5/18/2026 Royal Bank of Canada2,445,163$45.63M0.0%+13.4%1.632%
5/15/2026 Waverly Advisors LLC25,868$483K0.0%+2.4%0.017%
5/14/2026 FCA Corp TX92,299$1.72M0.5%+13.5%0.062%
5/14/2026 Davis R M Inc.975,287$18.20M0.3%+32.7%0.651%
5/14/2026 Lido Advisors LLC6,346,510$118.43M0.4%-0.6%4.235%
5/13/2026 Cetera Investment Advisers456,357$8.52M0.0%+32.1%0.305%
5/13/2026 Goepper Burkhardt LLC663,826$12.39M4.1%+5.7%0.443%
5/7/2026 Hanover Advisors Inc.55,155$1.03M0.4%+8.4%0.037%
5/7/2026 Continuum Wealth Advisors LLC72,632$1.36M0.6%+27.5%0.048%
5/7/2026 Pacific Wealth Strategies Group Inc.114,714$2.14M1.3%+38.6%0.077%
5/7/2026 Decker Wealth Management LLC395,504$7.38M1.7%N/A0.264%
5/7/2026 Koss Olinger Consulting LLC22,380$418K0.0%N/A0.015%
5/6/2026 IMA Advisory Services Inc.1,250,151$23.33M2.3%+2.3%0.834%
5/6/2026 Advisortrust Partners LLC3,974$74K0.0%N/A0.003%
5/6/2026 Oder Investment Management LLC93,532$1.75M1.3%+8.1%0.062%
5/6/2026 Independent Financial Group LLC21,412$400K0.0%N/A0.014%
5/5/2026 Quartz Partners LLC13,518$252K0.1%-12.0%0.009%
5/5/2026 Geneos Wealth Management Inc.216,047$4.03M0.1%+5.6%0.144%
5/5/2026 Sanctuary Advisors LLC460,358$8.59M0.0%+10.6%0.307%
5/5/2026 Sigma Planning Corp114,428$2.14M0.1%+3.7%0.076%
5/4/2026 Milestones Private Investment Advisors LLC137,373$2.56M2.3%-0.6%0.092%
5/4/2026 Empirical Financial Services LLC d.b.a. Empirical Wealth Management183,576$3.43M0.1%+1.1%0.123%
5/4/2026 Parr Mcknight Wealth Management Group LLC313,815$5.86M0.8%+11.5%0.209%
5/4/2026 Paradiem LLC411,874$7.69M1.7%N/A0.275%
5/2/2026Anchor Investment Management LLC1,139,118$21.26M1.8%+3,204.2%0.760%
5/2/2026 Valmark Advisers Inc.11,539$215K0.0%N/A0.008%
5/2/2026 Carnegie Investment Counsel315,132$5.88M0.1%+25.5%0.210%
5/2/2026 SFE Investment Counsel324,359$6.05M1.0%+5.6%0.216%
5/1/2026 Fifth Third Bancorp49,959$932K0.0%+4,214.2%0.033%
5/1/2026 Independence Bank of Kentucky62,665$1.17M0.1%+3.7%0.042%
5/1/2026 Carmel Capital Partners LLC351,205$6.55M2.4%+7.3%0.235%
4/30/2026 Kestra Advisory Services LLC195,836$3.65M0.0%-7.8%0.131%
4/29/2026 Cvfg LLC560,692$10.46M1.3%N/A0.375%
4/29/2026 Montag A & Associates Inc.31,108$580K0.0%-20.2%0.021%
4/29/2026 ArborFi Advisors LLC79,403$1.48M1.2%+3.5%0.053%
4/29/2026 Unified Investment Management62,620$1.17M1.2%+2.4%0.042%
4/28/2026 Kathmere Capital Management LLC354,731$6.62M0.4%-0.3%0.237%
4/28/2026 Ascentis Independent Advisors13,828$258K0.0%N/A0.009%
4/28/2026 Stephens Inc. AR198,362$3.70M0.0%+8.8%0.133%
4/27/2026 Apeiron RIA LLC68,909$1.29M0.3%+16.6%0.046%
4/27/2026 HB Wealth Management LLC33,958$634K0.0%+6.6%0.023%
4/27/2026 Private Advisor Group LLC235,211$4.39M0.0%+11.2%0.157%
4/25/2026 Livet Wealth LLC108,092$2.02M1.3%+6.2%0.073%
4/25/2026 Keybank National Association OH141,761$2.65M0.0%-37.9%0.095%
4/25/2026 GPM Growth Investors Inc.715,691$13.36M5.6%+0.3%0.480%
4/25/2026 4Thought Financial Group Inc.46,259$863K0.4%+6.9%0.031%
4/24/2026 American Institute for Advanced Investment Management LLP36,390$679K0.4%+21.4%0.024%
4/24/2026 Key Financial Inc60,947$1.14M0.2%+6.2%0.041%
4/23/2026 Kohmann Bosshard Financial Services LLC62,100$1.16M0.1%-2.6%0.042%
4/23/2026 Manchester Financial Inc.2,236,936$41.74M8.0%-0.4%1.502%
Ticker Revealed: Pre-IPO Access to "Next Elon Musk" Company (Ad)

We’ve found The Next Elon Musk… and what we believe to be the next Tesla. It’s already racked up $26 billion in government contracts. Peter Thiel just bet $1 Billion on it.tc pixel

👉 Unlock the ticker now and get it completely free.
4/23/2026 Capital Investment Counsel LLC961,430$17.94M2.5%-5.8%0.645%
4/23/2026 SJS Investment Consulting Inc.36,807$687K0.1%+65.1%0.025%
4/22/2026 Janney Montgomery Scott LLC1,164,246$21.73M0.1%+22.7%0.782%
4/22/2026 Wilkins Miller Wealth Management LLC318,058$5.94M3.6%+2.2%0.214%
4/22/2026 Semitam Bonam LLC101,095$1.89M1.5%+9.2%0.068%
4/22/2026 Trilogy Capital Inc.246,956$4.61M0.2%+4.1%0.166%
4/22/2026 Towne Trust Company N.A50,660$945K0.3%+7.2%0.034%
4/21/2026 Topsail Wealth Management LLC2,400$45K0.0%+60.0%0.002%
4/21/2026 AA Financial Advisors LLC327,238$6.11M0.9%-24.5%0.220%
4/21/2026 OLD National Bancorp IN26,892$502K0.0%N/A0.018%


BSCT Institutional Ownership - Frequently Asked Questions

During the previous two years, 347 institutional investors and hedge funds held shares of Invesco BulletShares 2029 Corporate Bond ETF. The most heavily invested institutionals were Morgan Stanley ($156.12M), Lido Advisors LLC ($118.43M), Wells Fargo & Company MN ($115.91M), Raymond James Financial Inc. ($88.12M), LPL Financial LLC ($81.91M), Aptus Capital Advisors LLC ($69.08M), and Bank of America Corp DE ($65.07M).Learn more on Invesco BulletShares 2029 Corporate Bond ETF's institutional investors.

Of the 336 institutional investors that purchased Invesco BulletShares 2029 Corporate Bond ETF's stock in the last 24 months, the following investors and hedge funds have bought the highest volume of shares: Raymond James Financial Inc. ($4.68M), Lido Advisors LLC ($3.50M), LPL Financial LLC ($2.51M), Manchester Financial Inc. ($2.33M), Aptus Capital Advisors LLC ($1.92M), Hills Bank & Trust Co ($1.83M), and Invesco Ltd. ($1.66M).

Institutional investors have bought a total of 24,537,316 shares in the last 24 months. This purchase volume represents approximately $460.78M in transactions.

Of the 64 institutional investors that sold Invesco BulletShares 2029 Corporate Bond ETF's stock in the last 24 months, the following investors and hedge funds have sold the highest volume of shares: Laurel Wealth Advisors LLC ($719.10K), Kickstand Ventures LLC. ($469.91K), BCS Wealth Management ($277.03K), Avior Wealth Management LLC ($247.97K), Atlantic Union Bankshares Corp ($216.02K), AA Financial Advisors LLC ($213.21K), and VestGen Advisors LLC ($172.32K).

Institutional investors have sold a total of 3,638,421 shares in the last 24 months. This volume of shares sold represents approximately $68.19M in transactions.



Institutional ownership data for NASDAQ:BSCT is compiled from quarterly 13F filings submitted to the U.S. Securities and Exchange Commission (SEC), with the most recent received on 9/2/2026. New 13F filings are added each quarter as they're published.
From Our Partners